Time;durP1;ratioP1;P1;durP2;ratioP2;P2;SDS_P1;SDS_P2;PMS_P1;PMS_P2;Temp;Humidity;BMP_temperature;BMP_pressure;BME280_temperature;BME280_humidity;BME280_pressure;Samples;Min_cycle;Max_cycle;Signal;HPM_P1;HPM_P2
2021/03/22 00:02:07;;;;;;;6.20;1.95;;;21.30;93.00;;;;;;5065490;28;21191;-60
2021/03/22 00:04:34;;;;;;;4.60;1.52;;;21.30;93.00;;;;;;5069372;28;20316;-62
2021/03/22 00:07:02;;;;;;;4.30;1.58;;;21.30;93.00;;;;;;5069461;28;20555;-61
2021/03/22 00:09:29;;;;;;;5.50;1.45;;;21.30;93.00;;;;;;5068792;28;20094;-61
2021/03/22 00:11:57;;;;;;;5.60;2.10;;;21.30;93.00;;;;;;5066030;28;20163;-56
2021/03/22 00:14:24;;;;;;;7.97;2.38;;;21.30;93.00;;;;;;5069522;28;20032;-58
2021/03/22 00:16:51;;;;;;;7.85;2.13;;;21.30;93.00;;;;;;5066647;28;20025;-57
2021/03/22 00:19:19;;;;;;;3.92;1.63;;;21.30;93.00;;;;;;5069096;28;20043;-56
2021/03/22 00:21:46;;;;;;;4.75;1.65;;;21.30;93.00;;;;;;5064839;28;20047;-60
2021/03/22 00:24:13;;;;;;;6.25;1.80;;;21.30;93.00;;;;;;5071038;28;20025;-56
2021/03/22 00:26:41;;;;;;;4.45;2.00;;;21.30;93.00;;;;;;5071055;28;20103;-66
2021/03/22 00:29:08;;;;;;;6.28;1.88;;;21.30;92.90;;;;;;5071477;28;20049;-63
2021/03/22 00:31:35;;;;;;;5.95;1.73;;;21.30;92.90;;;;;;5070621;28;20506;-61
2021/03/22 00:34:03;;;;;;;5.63;1.98;;;21.30;92.90;;;;;;5052958;28;20463;-61
2021/03/22 00:36:30;;;;;;;5.25;1.88;;;21.30;92.80;;;;;;5071654;28;20040;-64
2021/03/22 00:38:57;;;;;;;5.00;2.08;;;21.30;92.80;;;;;;5071474;28;20475;-65
2021/03/22 00:41:25;;;;;;;4.32;1.42;;;21.30;92.90;;;;;;5071271;28;20031;-64
2021/03/22 00:43:52;;;;;;;5.97;1.85;;;21.30;92.90;;;;;;5070700;28;20032;-61
2021/03/22 00:46:20;;;;;;;5.70;1.77;;;21.30;92.90;;;;;;5070923;28;20024;-58
2021/03/22 00:48:48;;;;;;;5.88;1.88;;;21.30;92.90;;;;;;5050912;28;20052;-60
2021/03/22 00:51:16;;;;;;;4.25;1.50;;;21.30;92.90;;;;;;5050244;28;20032;-60
2021/03/22 00:53:43;;;;;;;6.97;1.80;;;21.30;92.90;;;;;;5050777;28;20037;-63
2021/03/22 00:56:10;;;;;;;5.25;1.58;;;21.30;92.90;;;;;;5051019;28;20017;-61
2021/03/22 00:58:38;;;;;;;6.28;1.60;;;21.30;92.90;;;;;;5051242;28;20052;-62
2021/03/22 01:01:05;;;;;;;4.53;1.60;;;21.30;93.00;;;;;;5050994;28;20025;-60
2021/03/22 01:03:35;;;;;;;6.50;2.00;;;21.30;93.00;;;;;;5050180;28;20037;-59
2021/03/22 01:06:05;;;;;;;5.82;1.70;;;21.30;93.00;;;;;;5050625;28;20155;-60
2021/03/22 01:08:38;;;;;;;6.75;2.22;;;21.20;93.00;;;;;;5050844;28;20033;-59
2021/03/22 01:11:10;;;;;;;5.55;2.05;;;21.20;93.00;;;;;;5050984;28;20104;-61
2021/03/22 01:13:41;;;;;;;4.93;1.90;;;21.20;93.20;;;;;;5055441;28;20047;-60
2021/03/22 01:16:10;;;;;;;3.90;1.40;;;21.20;93.00;;;;;;5071050;28;20024;-64
2021/03/22 01:18:43;;;;;;;6.13;1.58;;;21.20;93.00;;;;;;5075463;28;20036;-60
2021/03/22 01:21:42;;;;;;;5.65;1.80;;;21.20;93.00;;;;;;5074835;28;20131;-62
2021/03/22 01:24:12;;;;;;;4.47;1.60;;;21.20;93.00;;;;;;5070309;28;20048;-60
2021/03/22 01:26:40;;;;;;;5.03;1.58;;;21.20;93.10;;;;;;5074526;28;20071;-60
2021/03/22 01:29:13;;;;;;;5.10;1.88;;;21.20;93.10;;;;;;5074702;28;20052;-62
2021/03/22 01:31:41;;;;;;;4.90;1.50;;;21.20;93.00;;;;;;5074159;28;20471;-61
2021/03/22 01:34:08;;;;;;;7.45;2.00;;;21.20;93.10;;;;;;5074571;28;20051;-63
2021/03/22 01:36:36;;;;;;;6.38;1.70;;;21.20;93.10;;;;;;5074728;28;20055;-65
2021/03/22 01:39:14;;;;;;;6.57;2.22;;;21.20;93.10;;;;;;5074575;28;20030;-63
2021/03/22 01:42:18;;;;;;;7.70;1.98;;;21.20;93.10;;;;;;5074238;28;20462;-61
2021/03/22 01:44:51;;;;;;;5.03;1.60;;;21.20;93.00;;;;;;5074126;28;20025;-59
2021/03/22 01:47:23;;;;;;;3.72;1.58;;;21.20;93.00;;;;;;5073996;28;20423;-58
2021/03/22 01:49:56;;;;;;;5.05;1.92;;;21.20;93.00;;;;;;5073957;28;20027;-60
2021/03/22 01:52:25;;;;;;;7.88;2.50;;;21.20;93.00;;;;;;5074055;28;20060;-61
2021/03/22 01:54:54;;;;;;;6.47;2.85;;;21.20;93.00;;;;;;5072568;28;20028;-61
2021/03/22 01:57:24;;;;;;;11.23;3.78;;;21.20;93.10;;;;;;5074077;28;20056;-62
2021/03/22 01:59:53;;;;;;;10.88;5.45;;;21.20;93.10;;;;;;5073878;28;20039;-63
2021/03/22 02:02:22;;;;;;;15.20;7.07;;;21.20;93.10;;;;;;5073866;28;20025;-65
2021/03/22 02:04:50;;;;;;;17.02;7.72;;;21.30;93.10;;;;;;5073986;28;20039;-64
2021/03/22 02:07:17;;;;;;;15.57;7.65;;;21.20;93.10;;;;;;5093504;28;20051;-62
2021/03/22 02:09:44;;;;;;;13.63;7.00;;;21.20;93.10;;;;;;5094171;28;20032;-62
2021/03/22 02:12:22;;;;;;;15.48;8.38;;;21.20;93.10;;;;;;5094023;28;20059;-63
2021/03/22 02:14:53;;;;;;;19.00;9.05;;;21.20;93.10;;;;;;5093545;28;20554;-54
2021/03/22 02:17:44;;;;;;;23.65;12.48;;;21.20;93.10;;;;;;5093622;28;20518;-59
2021/03/22 02:20:19;;;;;;;27.90;12.65;;;21.20;93.20;;;;;;5093673;28;20024;-57
2021/03/22 02:23:05;;;;;;;21.85;12.02;;;21.10;93.20;;;;;;5093524;28;20478;-64
2021/03/22 02:25:53;;;;;;;25.35;12.68;;;21.10;93.20;;;;;;5093407;28;20107;-66
2021/03/22 02:28:27;;;;;;;28.48;14.10;;;21.10;93.20;;;;;;5093470;28;20023;-62
2021/03/22 02:31:21;;;;;;;29.90;13.45;;;21.10;93.20;;;;;;5093108;28;20108;-58
2021/03/22 02:34:22;;;;;;;26.90;13.98;;;21.10;93.30;;;;;;5093270;28;20399;-62
2021/03/22 02:37:13;;;;;;;35.63;17.63;;;21.10;93.30;;;;;;5093600;28;20476;-59
2021/03/22 02:40:02;;;;;;;33.78;16.17;;;21.10;93.40;;;;;;5093319;28;20108;-56
2021/03/22 02:42:30;;;;;;;33.50;16.17;;;21.10;93.40;;;;;;5093263;28;20028;-60
2021/03/22 02:44:58;;;;;;;33.55;15.93;;;21.10;93.40;;;;;;5071012;28;20032;-64
2021/03/22 02:47:32;;;;;;;37.88;16.80;;;21.10;93.60;;;;;;5069345;28;20029;-61
2021/03/22 02:50:03;;;;;;;33.95;16.88;;;21.10;93.60;;;;;;5072635;28;20102;-57
2021/03/22 02:53:00;;;;;;;33.35;16.13;;;21.20;93.60;;;;;;5066735;28;20036;-56
2021/03/22 02:55:31;;;;;;;43.22;17.75;;;21.10;93.50;;;;;;5069529;28;20021;-61
2021/03/22 02:58:08;;;;;;;35.22;17.42;;;21.10;93.40;;;;;;5070965;28;20033;-56
2021/03/22 03:00:47;;;;;;;36.63;17.83;;;21.20;93.50;;;;;;5068970;28;20020;-60
2021/03/22 03:03:19;;;;;;;39.67;17.10;;;21.20;93.50;;;;;;5066400;28;20024;-61
2021/03/22 03:05:52;;;;;;;43.58;17.38;;;21.20;93.40;;;;;;5067683;28;20399;-59
2021/03/22 03:08:24;;;;;;;37.67;17.70;;;21.20;93.50;;;;;;5071168;28;20104;-61
2021/03/22 03:10:51;;;;;;;42.15;18.60;;;21.20;93.50;;;;;;5070427;28;20033;-55
2021/03/22 03:13:18;;;;;;;43.33;19.17;;;21.20;93.50;;;;;;5063912;28;20123;-63
2021/03/22 03:15:46;;;;;;;34.13;15.82;;;21.20;93.50;;;;;;5069273;28;20150;-54
2021/03/22 03:18:13;;;;;;;36.00;16.27;;;21.20;93.50;;;;;;5070882;28;20432;-57
2021/03/22 03:20:40;;;;;;;28.48;15.07;;;21.20;93.40;;;;;;5070282;28;20441;-59
2021/03/22 03:23:08;;;;;;;33.72;15.55;;;21.30;93.40;;;;;;5065902;28;20025;-56
2021/03/22 03:25:35;;;;;;;30.52;15.60;;;21.30;93.50;;;;;;5069636;28;20028;-56
2021/03/22 03:28:02;;;;;;;35.38;16.33;;;21.30;93.40;;;;;;5052196;28;20433;-59
2021/03/22 03:30:35;;;;;;;34.75;16.17;;;21.30;93.40;;;;;;5069753;28;20052;-61
2021/03/22 03:33:05;;;;;;;31.83;16.15;;;21.30;93.40;;;;;;5065996;28;20044;-56
2021/03/22 03:35:35;;;;;;;32.30;15.55;;;21.30;93.40;;;;;;5068931;28;20530;-61
2021/03/22 03:38:03;;;;;;;40.20;17.33;;;21.30;93.40;;;;;;5070188;28;20020;-57
2021/03/22 03:40:36;;;;;;;32.00;16.30;;;21.30;93.40;;;;;;5069418;28;20017;-58
2021/03/22 03:43:04;;;;;;;31.25;15.57;;;21.40;93.40;;;;;;5065755;28;20086;-60
2021/03/22 03:45:35;;;;;;;34.50;14.48;;;21.30;93.40;;;;;;5068752;28;20028;-56
2021/03/22 03:48:03;;;;;;;33.25;14.85;;;21.30;93.30;;;;;;5069760;28;20020;-61
2021/03/22 03:50:31;;;;;;;37.17;16.23;;;21.40;93.40;;;;;;5070508;28;20081;-60
2021/03/22 03:52:59;;;;;;;35.20;16.23;;;21.40;93.40;;;;;;5065273;28;20043;-60
2021/03/22 03:55:31;;;;;;;31.45;15.40;;;21.40;93.30;;;;;;5069355;28;20031;-61
2021/03/22 03:57:58;;;;;;;31.52;15.43;;;21.40;93.40;;;;;;5048925;28;20032;-60
2021/03/22 04:00:28;;;;;;;32.65;13.95;;;21.40;93.40;;;;;;5066631;28;20451;-61
2021/03/22 04:02:57;;;;;;;31.08;14.23;;;21.40;93.30;;;;;;5046879;28;20032;-59
2021/03/22 04:05:27;;;;;;;28.92;14.23;;;21.40;93.30;;;;;;5069060;28;20036;-61
2021/03/22 04:07:55;;;;;;;30.35;15.95;;;21.40;93.30;;;;;;5068338;28;20407;-56
2021/03/22 04:10:22;;;;;;;26.13;12.52;;;21.40;93.40;;;;;;5070126;28;20043;-61
2021/03/22 04:12:50;;;;;;;27.83;13.18;;;21.30;93.30;;;;;;5065250;28;20032;-55
2021/03/22 04:15:17;;;;;;;29.38;13.85;;;21.40;93.50;;;;;;5068914;28;20025;-58
2021/03/22 04:17:44;;;;;;;32.88;14.50;;;21.40;93.40;;;;;;5069610;28;20028;-56
2021/03/22 04:20:13;;;;;;;24.75;12.82;;;21.40;93.40;;;;;;5069889;28;20028;-60
2021/03/22 04:22:40;;;;;;;29.90;13.93;;;21.40;93.60;;;;;;5065245;28;20386;-60
2021/03/22 04:25:08;;;;;;;25.75;13.35;;;21.40;93.30;;;;;;5068551;28;20025;-60
2021/03/22 04:27:36;;;;;;;27.90;12.68;;;21.40;93.40;;;;;;5068864;28;20033;-53
2021/03/22 04:30:10;;;;;;;28.40;13.90;;;21.40;93.40;;;;;;5051320;28;20062;-58
2021/03/22 04:32:37;;;;;;;26.40;11.80;;;21.40;93.30;;;;;;5063428;28;20131;-55
2021/03/22 04:35:06;;;;;;;27.00;13.38;;;21.40;93.30;;;;;;5069105;28;20021;-59
2021/03/22 04:37:33;;;;;;;26.60;12.23;;;21.40;93.30;;;;;;5066930;28;20025;-60
2021/03/22 04:40:01;;;;;;;22.42;11.50;;;21.40;93.30;;;;;;5068953;28;20025;-61
2021/03/22 04:42:29;;;;;;;26.88;13.30;;;21.40;93.40;;;;;;5064708;28;21657;-63
2021/03/22 04:44:56;;;;;;;25.85;11.98;;;21.40;93.40;;;;;;5068739;28;20035;-58
2021/03/22 04:47:23;;;;;;;26.23;12.45;;;21.30;93.40;;;;;;5069548;28;20032;-55
2021/03/22 04:49:51;;;;;;;24.40;11.85;;;21.30;93.40;;;;;;5068309;28;20040;-56
2021/03/22 04:52:18;;;;;;;23.65;11.30;;;21.30;93.40;;;;;;5069260;28;21216;-62
2021/03/22 04:54:46;;;;;;;25.42;12.38;;;21.30;93.40;;;;;;5073199;28;20055;-58
2021/03/22 04:57:25;;;;;;;25.55;12.73;;;21.30;93.50;;;;;;5073577;28;20029;-61
2021/03/22 04:59:53;;;;;;;24.60;12.45;;;21.30;93.40;;;;;;5075041;28;20115;-58
2021/03/22 05:02:21;;;;;;;24.38;11.60;;;21.30;93.50;;;;;;5074860;28;20024;-63
2021/03/22 05:04:48;;;;;;;22.38;11.40;;;21.30;93.50;;;;;;5075220;28;20031;-64
2021/03/22 05:07:17;;;;;;;24.27;11.38;;;21.20;93.50;;;;;;5074634;28;20374;-59
2021/03/22 05:09:46;;;;;;;25.90;12.40;;;21.20;93.50;;;;;;5074433;28;20023;-63
2021/03/22 05:12:14;;;;;;;23.63;11.45;;;21.20;93.60;;;;;;5075024;28;20025;-59
2021/03/22 05:14:42;;;;;;;24.30;11.23;;;21.20;93.60;;;;;;5074607;28;20402;-59
2021/03/22 05:17:10;;;;;;;24.10;11.38;;;21.20;93.60;;;;;;5074745;28;20108;-58
2021/03/22 05:19:38;;;;;;;23.95;11.40;;;21.20;93.60;;;;;;5073856;28;20441;-57
2021/03/22 05:22:05;;;;;;;18.42;10.52;;;21.20;93.60;;;;;;5074791;28;20024;-62
2021/03/22 05:24:33;;;;;;;22.55;10.52;;;21.20;93.60;;;;;;5072722;28;20021;-56
2021/03/22 05:27:01;;;;;;;22.67;10.18;;;21.20;93.60;;;;;;5074403;28;20095;-58
2021/03/22 05:29:28;;;;;;;24.23;11.98;;;21.20;93.60;;;;;;5073867;28;20336;-61
2021/03/22 05:31:56;;;;;;;19.52;10.48;;;21.10;93.60;;;;;;5074326;28;20036;-54
2021/03/22 05:34:23;;;;;;;21.70;10.40;;;21.10;93.60;;;;;;5074208;28;20029;-55
2021/03/22 05:36:52;;;;;;;22.90;11.48;;;21.10;93.90;;;;;;5074110;28;20036;-55
2021/03/22 05:39:20;;;;;;;23.70;10.63;;;21.10;93.70;;;;;;5074102;28;20127;-63
2021/03/22 05:41:47;;;;;;;19.73;10.60;;;21.10;93.70;;;;;;5074389;28;20106;-60
2021/03/22 05:44:58;;;;;;;24.25;10.50;;;21.10;93.70;;;;;;5074488;28;20126;-66
2021/03/22 05:47:49;;;;;;;21.05;10.43;;;21.10;93.70;;;;;;5070175;28;20025;-59
2021/03/22 05:50:22;;;;;;;21.60;9.80;;;21.10;93.70;;;;;;5073596;28;20495;-66
2021/03/22 05:52:58;;;;;;;17.98;9.55;;;21.10;93.70;;;;;;5074151;28;20507;-64
2021/03/22 05:55:43;;;;;;;19.48;10.32;;;21.10;93.70;;;;;;5074186;28;20027;-60
2021/03/22 05:58:19;;;;;;;21.83;9.98;;;21.10;93.70;;;;;;5073799;28;20036;-58
2021/03/22 06:00:52;;;;;;;19.38;10.05;;;21.10;93.70;;;;;;5073456;28;20021;-63
2021/03/22 06:03:41;;;;;;;21.27;9.95;;;21.10;93.70;;;;;;5073271;28;20111;-62
2021/03/22 06:06:21;;;;;;;19.80;10.10;;;21.00;93.70;;;;;;5072350;28;20363;-65
2021/03/22 06:09:21;;;;;;;16.80;7.90;;;21.00;93.70;;;;;;5072041;28;20097;-57
2021/03/22 06:12:32;;;;;;;21.73;9.57;;;21.00;93.70;;;;;;5069931;28;20076;-57
2021/03/22 06:15:02;;;;;;;19.50;9.77;;;21.00;93.70;;;;;;5051759;28;20047;-61
2021/03/22 06:17:45;;;;;;;25.38;10.75;;;21.00;93.80;;;;;;5071387;28;20056;-60
2021/03/22 06:20:39;;;;;;;17.90;9.02;;;21.00;93.80;;;;;;5070057;28;20025;-62
2021/03/22 06:23:34;;;;;;;18.25;9.20;;;21.00;93.80;;;;;;5067119;28;20037;-62
2021/03/22 06:26:20;;;;;;;18.17;8.43;;;21.00;93.80;;;;;;5064353;28;20080;-57
2021/03/22 06:28:54;;;;;;;19.77;9.25;;;21.00;93.90;;;;;;5071487;28;20535;-64
2021/03/22 06:31:23;;;;;;;20.30;9.93;;;21.00;93.90;;;;;;5070678;28;20163;-62
2021/03/22 06:33:54;;;;;;;17.02;9.10;;;21.00;93.80;;;;;;5053622;28;20055;-59
2021/03/22 06:36:25;;;;;;;16.70;9.05;;;21.10;93.80;;;;;;5050242;28;20028;-63
2021/03/22 06:38:56;;;;;;;17.17;8.82;;;21.00;93.80;;;;;;5053750;28;20031;-62
2021/03/22 06:41:50;;;;;;;18.67;8.15;;;21.00;93.80;;;;;;5070398;28;20028;-64
2021/03/22 06:44:33;;;;;;;18.67;8.65;;;21.00;93.80;;;;;;5067968;28;20036;-64
2021/03/22 06:47:02;;;;;;;16.40;9.07;;;21.00;93.70;;;;;;5068393;28;20028;-64
2021/03/22 06:49:39;;;;;;;17.05;8.80;;;21.10;93.90;;;;;;5070174;28;20036;-66
2021/03/22 06:52:12;;;;;;;21.33;9.68;;;21.00;93.80;;;;;;5071263;28;20063;-54
2021/03/22 06:54:54;;;;;;;20.17;9.57;;;21.00;93.80;;;;;;5067714;28;20037;-63
2021/03/22 06:57:28;;;;;;;16.48;8.20;;;21.00;93.80;;;;;;5070667;28;20032;-58
2021/03/22 07:00:15;;;;;;;14.55;8.35;;;21.00;93.80;;;;;;5066988;28;20071;-57
2021/03/22 07:02:53;;;;;;;18.38;8.57;;;21.00;93.80;;;;;;5071531;28;20531;-59
2021/03/22 07:05:29;;;;;;;16.27;8.05;;;21.00;93.90;;;;;;5066157;28;20048;-59
2021/03/22 07:08:05;;;;;;;16.95;5.38;;;21.00;93.90;;;;;;5052853;28;20460;-64
2021/03/22 07:10:38;;;;;;;23.25;4.88;;;19.70;94.70;;;;;;5066712;28;20029;-59
2021/03/22 07:13:07;;;;;;;21.23;4.80;;;19.30;96.10;;;;;;5070851;28;20522;-61
2021/03/22 07:15:37;;;;;;;32.63;9.45;;;19.20;96.80;;;;;;5065857;28;20134;-63
2021/03/22 07:18:21;;;;;;;29.50;6.72;;;19.30;96.90;;;;;;5070500;28;20115;-61
2021/03/22 07:21:14;;;;;;;20.25;4.40;;;19.30;97.00;;;;;;5069412;28;20021;-62
2021/03/22 07:23:58;;;;;;;22.52;13.52;;;19.40;97.00;;;;;;5068219;28;20024;-54
2021/03/22 07:26:50;;;;;;;44.85;29.40;;;19.80;97.20;;;;;;5066287;28;20387;-56
2021/03/22 07:29:35;;;;;;;;;;;20.00;96.30;;;;;;5069492;28;20150;-59
2021/03/22 07:32:02;;;;;;;35.38;29.75;;;20.30;95.90;;;;;;5067070;28;19916;-55
2021/03/22 07:34:41;;;;;;;41.50;30.85;;;20.40;95.50;;;;;;5066117;28;20036;-56
2021/03/22 07:37:35;;;;;;;32.78;20.70;;;20.60;95.50;;;;;;5067517;28;20032;-53
2021/03/22 07:40:15;;;;;;;26.38;12.50;;;20.70;95.40;;;;;;5066715;28;20054;-54
2021/03/22 07:43:15;;;;;;;24.58;12.27;;;20.70;95.20;;;;;;5070167;28;20066;-63
2021/03/22 07:45:57;;;;;;;22.33;10.88;;;20.80;95.40;;;;;;5024649;28;20406;-59
2021/03/22 07:49:06;;;;;;;34.65;22.20;;;20.80;95.20;;;;;;5069786;28;20012;-58
2021/03/22 07:52:09;;;;;;;19.85;9.52;;;20.90;94.90;;;;;;5065683;28;20032;-59
2021/03/22 07:54:59;;;;;;;21.10;9.82;;;20.90;95.40;;;;;;5010621;28;20036;-55
2021/03/22 07:57:57;;;;;;;28.30;11.82;;;20.90;95.10;;;;;;5069412;28;20033;-61
2021/03/22 08:00:45;;;;;;;23.50;9.25;;;20.90;95.50;;;;;;5031598;28;20043;-52
2021/03/22 08:04:03;;;;;;;20.30;8.00;;;20.90;95.90;;;;;;5068675;28;20055;-53
2021/03/22 08:06:44;;;;;;;31.67;7.47;;;20.90;95.60;;;;;;5024702;28;20049;-56
2021/03/22 08:10:03;;;;;;;20.73;7.10;;;20.80;95.50;;;;;;5067681;28;20055;-51
2021/03/22 08:12:51;;;;;;;18.17;6.68;;;20.90;96.00;;;;;;5028823;28;20241;-54
2021/03/22 08:15:39;;;;;;;15.25;5.57;;;20.90;95.70;;;;;;5064375;28;20176;-50
2021/03/22 08:18:21;;;;;;;19.95;5.95;;;20.90;95.70;;;;;;5066868;28;20059;-58
2021/03/22 08:21:09;;;;;;;23.40;5.68;;;20.90;95.80;;;;;;5068698;28;20021;-55
2021/03/22 08:24:33;;;;;;;23.23;6.57;;;21.00;96.20;;;;;;5067183;28;20471;-60
2021/03/22 08:27:15;;;;;;;16.23;5.45;;;21.00;95.80;;;;;;4968456;28;20042;-53
2021/03/22 08:29:58;;;;;;;25.33;5.97;;;21.00;96.10;;;;;;5067372;28;20032;-54
2021/03/22 08:32:45;;;;;;;18.55;4.30;;;21.00;96.30;;;;;;5068783;28;20336;-55
2021/03/22 08:35:39;;;;;;;28.80;6.05;;;21.00;96.00;;;;;;5063609;28;20104;-50
2021/03/22 08:38:13;;;;;;;25.50;5.20;;;21.10;96.60;;;;;;5066684;28;20386;-56
2021/03/22 08:40:46;;;;;;;24.20;4.97;;;21.00;96.00;;;;;;5068849;28;20025;-58
2021/03/22 08:43:49;;;;;;;16.70;4.75;;;21.00;95.60;;;;;;5069417;28;20483;-55
2021/03/22 08:46:29;;;;;;;18.67;4.97;;;21.00;95.70;;;;;;5064063;28;20048;-58
2021/03/22 08:48:58;;;;;;;17.63;3.55;;;20.90;95.30;;;;;;5069201;28;20098;-61
2021/03/22 08:51:31;;;;;;;12.27;3.55;;;20.90;95.30;;;;;;5068051;28;20025;-52
2021/03/22 08:54:00;;;;;;;16.92;4.07;;;20.90;94.90;;;;;;5069734;28;20136;-58
2021/03/22 08:56:39;;;;;;;15.05;3.80;;;20.90;95.10;;;;;;5065426;28;20028;-53
2021/03/22 08:59:11;;;;;;;19.65;4.30;;;20.90;95.20;;;;;;5066668;28;20045;-57
2021/03/22 09:01:42;;;;;;;15.93;3.97;;;20.90;95.30;;;;;;5068700;28;20099;-53
2021/03/22 09:04:22;;;;;;;13.05;3.53;;;20.90;95.40;;;;;;5050351;28;20024;-53
2021/03/22 09:07:11;;;;;;;17.92;3.92;;;20.80;95.10;;;;;;5068688;28;20060;-58
2021/03/22 09:09:41;;;;;;;24.45;4.35;;;20.80;95.10;;;;;;5066615;28;20028;-62
2021/03/22 09:12:33;;;;;;;19.48;4.50;;;20.80;95.40;;;;;;5067211;28;20079;-61
2021/03/22 09:15:11;;;;;;;18.02;3.85;;;20.90;95.80;;;;;;5064673;28;20025;-61
2021/03/22 09:17:41;;;;;;;27.63;4.43;;;20.90;95.70;;;;;;5067514;28;20370;-54
2021/03/22 09:20:24;;;;;;;12.00;3.17;;;20.90;95.40;;;;;;5048749;28;20090;-62
2021/03/22 09:22:55;;;;;;;;;;;20.90;95.40;;;;;;5069040;28;20024;-53
2021/03/22 09:25:47;;;;;;;13.87;4.10;;;20.90;95.60;;;;;;5064975;28;19908;-51
2021/03/22 09:28:26;;;;;;;21.35;4.25;;;20.90;95.40;;;;;;5067666;28;20747;-56
2021/03/22 09:30:58;;;;;;;15.93;3.60;;;20.80;95.50;;;;;;5067898;28;20025;-54
2021/03/22 09:33:50;;;;;;;20.40;4.00;;;20.90;95.70;;;;;;5069141;28;20032;-48
2021/03/22 09:36:28;;;;;;;10.90;3.20;;;20.90;95.90;;;;;;5063603;28;20035;-53
2021/03/22 09:38:57;;;;;;;16.55;3.45;;;20.90;95.90;;;;;;5054156;28;20032;-54
2021/03/22 09:41:53;;;;;;;26.88;4.15;;;20.90;95.90;;;;;;5071569;28;20026;-50
2021/03/22 09:44:33;;;;;;;11.50;3.50;;;21.00;96.10;;;;;;5024591;28;20439;-59
2021/03/22 09:47:15;;;;;;;18.80;3.72;;;21.00;95.90;;;;;;5069557;28;20035;-60
2021/03/22 09:50:01;;;;;;;12.95;3.00;;;21.00;95.90;;;;;;5070276;28;20115;-53
2021/03/22 09:52:40;;;;;;;17.55;3.78;;;20.90;95.90;;;;;;5069483;28;20039;-52
2021/03/22 09:55:55;;;;;;;11.10;2.92;;;21.00;96.00;;;;;;5064467;28;20024;-59
2021/03/22 09:58:46;;;;;;;18.95;4.28;;;21.00;95.90;;;;;;5070621;28;20052;-58
2021/03/22 10:01:35;;;;;;;15.35;3.67;;;21.00;95.80;;;;;;5068830;28;20028;-63
2021/03/22 10:04:20;;;;;;;19.08;3.65;;;21.00;95.70;;;;;;5072251;28;20386;-59
2021/03/22 10:07:20;;;;;;;14.60;3.38;;;21.00;95.70;;;;;;5071343;28;20052;-66
2021/03/22 10:10:02;;;;;;;20.20;4.30;;;21.00;95.70;;;;;;5054296;28;20037;-63
2021/03/22 10:12:35;;;;;;;15.68;3.53;;;21.10;95.70;;;;;;5070856;28;20363;-61
2021/03/22 10:15:14;;;;;;;11.48;3.33;;;21.00;95.60;;;;;;5064881;28;20056;-64
2021/03/22 10:18:03;;;;;;;11.70;3.30;;;21.00;95.60;;;;;;5069837;28;20169;-60
2021/03/22 10:20:46;;;;;;;9.77;3.20;;;21.00;95.60;;;;;;5068435;28;20120;-60
2021/03/22 10:23:22;;;;;;;13.65;4.38;;;21.00;95.60;;;;;;5072032;28;20028;-56
2021/03/22 10:25:51;;;;;;;12.25;2.63;;;21.00;95.60;;;;;;5067970;28;20106;-56
2021/03/22 10:28:25;;;;;;;17.55;4.28;;;21.00;95.50;;;;;;5072416;28;20032;-65
2021/03/22 10:31:10;;;;;;;10.77;3.28;;;21.00;95.50;;;;;;5071322;28;20115;-58
2021/03/22 10:33:45;;;;;;;11.82;3.50;;;21.00;95.50;;;;;;5069474;28;20066;-61
2021/03/22 10:36:27;;;;;;;10.73;3.38;;;21.00;95.50;;;;;;5065471;28;20092;-59
2021/03/22 10:38:56;;;;;;;15.23;4.30;;;21.00;95.40;;;;;;5072064;28;20178;-58
2021/03/22 10:41:40;;;;;;;14.95;4.05;;;21.00;95.40;;;;;;5070519;28;20036;-62
2021/03/22 10:44:28;;;;;;;8.70;2.72;;;21.00;95.40;;;;;;5071527;28;20050;-58
2021/03/22 10:47:06;;;;;;;10.52;3.25;;;21.00;95.40;;;;;;5071553;28;20025;-61
2021/03/22 10:49:34;;;;;;;12.65;3.78;;;21.00;95.40;;;;;;5071870;28;20035;-56
2021/03/22 10:52:03;;;;;;;10.93;3.20;;;21.00;95.40;;;;;;5071062;28;20048;-59
2021/03/22 10:54:46;;;;;;;14.15;3.42;;;21.00;95.40;;;;;;5049069;28;20828;-62
2021/03/22 10:57:25;;;;;;;14.68;3.97;;;21.00;95.30;;;;;;5070141;28;20033;-62
2021/03/22 10:59:55;;;;;;;13.52;3.45;;;21.00;95.40;;;;;;5071818;28;20521;-63
2021/03/22 11:02:47;;;;;;;10.85;3.00;;;21.00;95.30;;;;;;5070867;28;20032;-58
2021/03/22 11:05:17;;;;;;;10.18;2.80;;;21.00;95.30;;;;;;5066664;28;20078;-59
2021/03/22 11:07:55;;;;;;;10.40;2.38;;;21.00;95.30;;;;;;5071950;28;20056;-59
2021/03/22 11:10:25;;;;;;;12.32;3.40;;;21.00;95.30;;;;;;5071247;28;20029;-58
2021/03/22 11:12:54;;;;;;;11.23;3.22;;;21.00;95.30;;;;;;5070995;28;20094;-58
2021/03/22 11:15:23;;;;;;;11.02;3.20;;;21.00;95.30;;;;;;5066311;28;20023;-59
2021/03/22 11:17:51;;;;;;;10.57;3.00;;;21.00;95.20;;;;;;5071200;28;20058;-61
2021/03/22 11:20:21;;;;;;;13.75;2.80;;;21.00;95.20;;;;;;5071588;28;20024;-61
2021/03/22 11:22:51;;;;;;;15.52;3.70;;;21.00;95.20;;;;;;5070168;28;20033;-63
2021/03/22 11:25:32;;;;;;;7.95;2.45;;;21.00;95.20;;;;;;5065560;28;20063;-61
2021/03/22 11:28:01;;;;;;;9.07;2.90;;;21.00;95.10;;;;;;5071071;28;20379;-60
2021/03/22 11:30:41;;;;;;;7.50;2.17;;;21.00;95.10;;;;;;5070663;28;20028;-60
2021/03/22 11:33:26;;;;;;;10.35;3.25;;;21.00;95.10;;;;;;5068091;28;20047;-58
2021/03/22 11:36:14;;;;;;;9.48;3.10;;;21.00;95.10;;;;;;5050763;28;20104;-59
2021/03/22 11:38:44;;;;;;;10.23;2.55;;;21.00;95.10;;;;;;5068581;28;20024;-59
2021/03/22 11:41:28;;;;;;;8.60;3.03;;;21.00;95.10;;;;;;5067809;28;20029;-55
2021/03/22 11:44:23;;;;;;;7.53;2.70;;;20.90;95.00;;;;;;5070400;28;20056;-59
2021/03/22 11:46:59;;;;;;;7.70;2.38;;;21.00;95.10;;;;;;5068971;28;20539;-59
2021/03/22 11:49:45;;;;;;;8.07;2.33;;;21.00;95.10;;;;;;5070528;28;20537;-56
2021/03/22 11:52:23;;;;;;;7.50;2.20;;;21.00;95.00;;;;;;5069942;28;20029;-61
2021/03/22 11:54:54;;;;;;;9.25;2.80;;;21.00;95.00;;;;;;5062831;28;20029;-53
2021/03/22 11:57:30;;;;;;;10.70;3.13;;;21.00;95.00;;;;;;5070380;28;20055;-56
2021/03/22 12:00:20;;;;;;;7.80;2.15;;;21.00;95.00;;;;;;5070155;28;20716;-59
2021/03/22 12:02:59;;;;;;;9.02;2.50;;;21.10;94.90;;;;;;5056275;28;20494;-59
2021/03/22 12:05:41;;;;;;;11.05;2.60;;;21.00;94.80;;;;;;5064723;28;20036;-56
2021/03/22 12:08:25;;;;;;;;;;;21.10;94.80;;;;;;5069878;28;20418;-61
2021/03/22 12:10:53;;;;;;;9.60;2.20;;;21.00;94.70;;;;;;5069114;28;20299;-61
2021/03/22 12:13:20;;;;;;;8.35;2.17;;;21.10;94.70;;;;;;5070187;28;20071;-56
2021/03/22 12:15:47;;;;;;;6.78;2.38;;;21.00;94.80;;;;;;5065005;28;20020;-59
2021/03/22 12:18:40;;;;;;;7.03;2.15;;;21.00;94.70;;;;;;5070543;28;20036;-60
2021/03/22 12:21:13;;;;;;;8.13;2.40;;;21.00;94.70;;;;;;5068056;28;20031;-59
2021/03/22 12:23:41;;;;;;;7.88;2.40;;;21.00;94.70;;;;;;5070183;28;20052;-60
2021/03/22 12:26:10;;;;;;;6.15;1.98;;;21.00;94.70;;;;;;5065596;28;20107;-64
2021/03/22 12:28:53;;;;;;;8.70;2.40;;;21.00;94.70;;;;;;5052854;28;20017;-59
2021/03/22 12:31:43;;;;;;;7.78;2.17;;;21.00;94.70;;;;;;5069589;28;20025;-60
2021/03/22 12:34:16;;;;;;;8.38;2.92;;;21.00;94.70;;;;;;5068506;28;20047;-65
2021/03/22 12:36:45;;;;;;;7.15;2.85;;;21.00;94.70;;;;;;5070839;28;20033;-65
2021/03/22 12:39:25;;;;;;;7.75;2.63;;;20.90;94.70;;;;;;5071799;28;20082;-64
2021/03/22 12:42:00;;;;;;;6.10;2.03;;;20.90;94.60;;;;;;5071745;28;20154;-58
2021/03/22 12:44:39;;;;;;;6.47;2.13;;;20.90;94.60;;;;;;5071663;28;20024;-60
2021/03/22 12:47:07;;;;;;;7.38;2.90;;;20.90;94.50;;;;;;5056800;28;20044;-61
2021/03/22 12:49:38;;;;;;;5.00;1.85;;;20.90;94.60;;;;;;5070951;28;20502;-62
2021/03/22 12:52:06;;;;;;;7.80;2.43;;;20.90;94.70;;;;;;5071651;28;20044;-61
2021/03/22 12:54:33;;;;;;;6.03;2.05;;;20.90;94.60;;;;;;5071347;28;20053;-65
2021/03/22 12:57:01;;;;;;;8.02;2.28;;;20.80;94.50;;;;;;5070826;28;20033;-61
2021/03/22 12:59:35;;;;;;;10.05;2.17;;;20.80;94.60;;;;;;5069673;28;20028;-66
2021/03/22 13:02:22;;;;;;;8.50;2.65;;;20.80;94.60;;;;;;5061128;28;20028;-59
2021/03/22 13:04:50;;;;;;;8.68;2.35;;;20.80;94.50;;;;;;5068555;28;20203;-63
2021/03/22 13:07:17;;;;;;;5.30;2.38;;;20.70;94.60;;;;;;5071527;28;20052;-64
2021/03/22 13:09:46;;;;;;;6.22;2.05;;;20.80;94.60;;;;;;5071903;28;20408;-61
2021/03/22 13:12:33;;;;;;;6.18;2.28;;;20.70;94.70;;;;;;5065903;28;20234;-61
2021/03/22 13:15:00;;;;;;;7.38;1.88;;;20.70;94.70;;;;;;5071317;28;20031;-61
2021/03/22 13:17:33;;;;;;;6.90;2.15;;;20.70;94.70;;;;;;5055630;28;20517;-59
2021/03/22 13:20:06;;;;;;;7.68;2.13;;;20.70;94.80;;;;;;5070466;28;20089;-60
2021/03/22 13:22:33;;;;;;;6.32;2.05;;;20.70;94.80;;;;;;5069339;28;20032;-59
2021/03/22 13:25:09;;;;;;;9.77;2.05;;;20.60;94.70;;;;;;5073541;28;20119;-58